createdAt,value
2022-11-13T00:00:52.210Z,17.60
2022-11-13T00:01:52.192Z,16.30
2022-11-13T00:02:52.216Z,19.30
2022-11-13T00:03:52.150Z,18.00
2022-11-13T00:04:52.128Z,18.20
2022-11-13T00:05:52.107Z,18.90
2022-11-13T00:06:57.790Z,18.40
2022-11-13T00:07:52.069Z,18.90
2022-11-13T00:08:52.040Z,17.70
2022-11-13T00:09:52.028Z,16.20
2022-11-13T00:10:51.998Z,18.90
2022-11-13T00:11:51.981Z,18.90
2022-11-13T00:12:51.975Z,17.80
2022-11-13T00:13:51.936Z,17.40
2022-11-13T00:14:51.914Z,16.80
2022-11-13T00:15:51.896Z,16.10
2022-11-13T00:16:51.873Z,16.60
2022-11-13T00:17:51.856Z,16.20
2022-11-13T00:18:51.836Z,16.50
2022-11-13T00:19:51.812Z,18.00
2022-11-13T00:20:51.792Z,17.70
2022-11-13T00:21:51.771Z,17.50
2022-11-13T00:22:51.861Z,17.10
2022-11-13T00:23:51.754Z,16.70
2022-11-13T00:24:51.708Z,16.90
2022-11-13T00:25:51.693Z,15.10
2022-11-13T00:26:51.664Z,17.70
2022-11-13T00:27:51.647Z,18.40
2022-11-13T00:28:51.624Z,18.00
2022-11-13T00:29:51.602Z,18.10
2022-11-13T00:30:51.580Z,17.60
2022-11-13T00:31:51.565Z,16.90
2022-11-13T00:32:51.545Z,15.90
2022-11-13T00:34:51.498Z,16.40
2022-11-13T00:35:51.476Z,14.90
2022-11-13T00:36:51.451Z,17.70
2022-11-13T00:37:51.436Z,16.30
2022-11-13T00:38:51.524Z,15.20
2022-11-13T00:39:54.501Z,16.10
2022-11-13T00:40:51.373Z,16.10
2022-11-13T00:41:51.354Z,17.50
2022-11-13T00:42:51.327Z,16.80
2022-11-13T00:43:51.306Z,17.60
2022-11-13T00:44:51.290Z,14.50
2022-11-13T00:45:51.268Z,17.00
2022-11-13T00:46:51.245Z,16.10
2022-11-13T00:47:51.222Z,15.60
2022-11-13T00:48:51.200Z,17.70
2022-11-13T00:49:51.181Z,18.40
2022-11-13T00:50:51.158Z,16.30
2022-11-13T00:51:51.147Z,16.50
2022-11-13T00:52:51.120Z,15.30
2022-11-13T00:53:51.094Z,18.40
2022-11-13T00:54:51.191Z,16.50
2022-11-13T00:55:51.053Z,16.60
2022-11-13T00:56:51.031Z,14.90
2022-11-13T00:57:51.010Z,17.20
2022-11-13T00:58:50.989Z,16.60
2022-11-13T00:59:50.969Z,17.50
2022-11-13T01:00:50.955Z,18.90
2022-11-13T01:01:50.973Z,15.70
2022-11-13T01:02:50.906Z,15.70
2022-11-13T01:03:50.886Z,17.20
2022-11-13T01:04:50.867Z,14.70
2022-11-13T01:05:50.841Z,17.20
2022-11-13T01:06:50.915Z,17.00
2022-11-13T01:07:50.803Z,16.90
2022-11-13T01:08:50.776Z,17.30
2022-11-13T01:09:50.756Z,15.60
2022-11-13T01:10:53.690Z,15.70
2022-11-13T01:11:50.713Z,17.10
2022-11-13T01:12:50.694Z,16.00
2022-11-13T01:13:50.677Z,16.40
2022-11-13T01:14:50.649Z,17.30
2022-11-13T01:15:50.632Z,16.10
2022-11-13T01:16:50.608Z,15.50
2022-11-13T01:17:50.590Z,15.00
2022-11-13T01:18:50.564Z,15.30
2022-11-13T01:19:50.546Z,15.40
2022-11-13T01:20:50.531Z,15.10
2022-11-13T01:21:50.505Z,15.30
2022-11-13T01:22:50.479Z,16.80
2022-11-13T01:23:50.466Z,14.90
2022-11-13T01:24:50.447Z,17.20
2022-11-13T01:25:50.418Z,17.30
2022-11-13T01:26:50.507Z,17.10
2022-11-13T01:27:50.373Z,17.30
2022-11-13T01:28:50.356Z,15.20
2022-11-13T01:29:50.336Z,15.90
2022-11-13T01:30:50.319Z,14.00
2022-11-13T01:31:50.291Z,17.50
2022-11-13T01:32:50.270Z,14.50
2022-11-13T01:33:50.251Z,16.00
2022-11-13T01:34:50.228Z,16.20
2022-11-13T01:35:50.211Z,14.60
2022-11-13T01:36:50.186Z,14.50
2022-11-13T01:37:50.164Z,15.20
2022-11-13T01:38:50.144Z,14.50
2022-11-13T01:39:50.120Z,16.00
2022-11-13T01:40:50.099Z,16.70
2022-11-13T01:41:50.083Z,15.60
2022-11-13T01:42:50.179Z,16.70
2022-11-13T01:43:50.042Z,15.70
2022-11-13T01:44:50.016Z,14.70
2022-11-13T01:45:49.997Z,14.70
2022-11-13T01:46:49.977Z,14.50
2022-11-13T01:47:49.955Z,16.70
2022-11-13T01:48:49.932Z,16.40
2022-11-13T01:49:49.910Z,15.90
2022-11-13T01:50:49.888Z,16.00
2022-11-13T01:51:49.868Z,15.00
2022-11-13T01:52:49.858Z,14.40
2022-11-13T01:53:49.826Z,16.50
2022-11-13T01:54:49.803Z,16.90
2022-11-13T01:55:49.780Z,15.80
2022-11-13T01:56:49.758Z,15.80
2022-11-13T01:57:49.740Z,13.40
2022-11-13T01:58:49.838Z,17.60
2022-11-13T01:59:49.696Z,16.50
2022-11-13T02:00:49.675Z,14.60
2022-11-13T02:01:49.695Z,17.30
2022-11-13T02:02:49.632Z,14.90
2022-11-13T02:03:49.608Z,15.20
2022-11-13T02:04:49.594Z,14.10
2022-11-13T02:05:49.573Z,16.30
2022-11-13T02:06:49.612Z,15.80
2022-11-13T02:07:49.524Z,14.40
2022-11-13T02:08:49.507Z,15.40
2022-11-13T02:09:49.484Z,15.70
2022-11-13T02:10:49.462Z,15.10
2022-11-13T02:11:49.443Z,14.50
2022-11-13T02:12:49.421Z,15.80
2022-11-13T02:13:49.397Z,14.80
2022-11-13T02:14:49.494Z,14.60
2022-11-13T02:15:49.355Z,14.40
2022-11-13T02:16:49.334Z,16.20
2022-11-13T02:17:49.313Z,15.10
2022-11-13T02:18:49.291Z,14.00
2022-11-13T02:19:49.279Z,14.60
2022-11-13T02:20:49.252Z,14.70
2022-11-13T02:21:49.233Z,14.40
2022-11-13T02:22:49.205Z,14.60
2022-11-13T02:23:49.186Z,17.40
2022-11-13T02:24:54.518Z,15.40
2022-11-13T02:25:49.142Z,13.40
2022-11-13T02:26:49.121Z,15.90
2022-11-13T02:27:49.098Z,14.30
2022-11-13T02:28:49.077Z,15.00
2022-11-13T02:29:49.056Z,13.70
2022-11-13T02:30:49.153Z,15.00
2022-11-13T02:31:49.015Z,17.20
2022-11-13T02:32:48.999Z,15.00
2022-11-13T02:33:48.970Z,14.20
2022-11-13T02:34:48.951Z,14.70
2022-11-13T02:35:48.928Z,13.90
2022-11-13T02:36:48.902Z,15.90
2022-11-13T02:37:48.887Z,13.60
2022-11-13T02:38:48.864Z,16.30
2022-11-13T02:39:48.848Z,15.60
2022-11-13T02:40:48.822Z,15.00
2022-11-13T02:41:48.803Z,15.80
2022-11-13T02:42:48.776Z,13.70
2022-11-13T02:43:48.761Z,14.50
2022-11-13T02:44:48.735Z,15.40
2022-11-13T02:45:48.716Z,13.80
2022-11-13T02:46:48.813Z,14.80
2022-11-13T02:47:48.682Z,13.60
2022-11-13T02:48:48.651Z,15.40
2022-11-13T02:49:48.626Z,14.60
2022-11-13T02:50:48.607Z,14.50
2022-11-13T02:51:48.587Z,14.80
2022-11-13T02:52:48.726Z,12.60
2022-11-13T02:53:48.544Z,14.50
2022-11-13T02:54:48.523Z,13.40
2022-11-13T02:55:48.501Z,14.70
2022-11-13T02:56:48.479Z,16.80
2022-11-13T02:57:48.459Z,15.20
2022-11-13T02:58:48.433Z,15.60
2022-11-13T02:59:48.418Z,13.30
2022-11-13T03:00:48.389Z,15.00
2022-11-13T03:01:48.404Z,14.00
2022-11-13T03:02:48.470Z,14.10
2022-11-13T03:03:57.480Z,13.80
2022-11-13T03:05:11.519Z,15.30
2022-11-13T03:05:48.287Z,14.30
2022-11-13T03:06:48.324Z,13.90
2022-11-13T03:07:48.241Z,14.10
2022-11-13T03:08:48.229Z,14.80
2022-11-13T03:09:48.202Z,13.30
2022-11-13T03:10:48.176Z,14.20
2022-11-13T03:11:48.154Z,14.30
2022-11-13T03:12:48.137Z,12.80
2022-11-13T03:13:48.118Z,13.00
2022-11-13T03:14:48.092Z,13.30
2022-11-13T03:15:48.070Z,13.90
2022-11-13T03:16:48.051Z,12.90
2022-11-13T03:17:48.030Z,14.10
2022-11-13T03:18:48.118Z,14.60
2022-11-13T03:19:47.981Z,14.30
2022-11-13T03:20:47.961Z,15.80
2022-11-13T03:21:47.940Z,13.70
2022-11-13T03:22:47.918Z,15.60
2022-11-13T03:23:47.900Z,14.20
2022-11-13T03:24:47.876Z,13.30
2022-11-13T03:25:47.853Z,14.30
2022-11-13T03:26:47.831Z,13.70
2022-11-13T03:27:47.816Z,15.60
2022-11-13T03:28:47.789Z,14.60
2022-11-13T03:29:47.772Z,14.00
2022-11-13T03:30:47.753Z,13.30
2022-11-13T03:31:47.725Z,15.90
2022-11-13T03:32:47.703Z,13.80
2022-11-13T03:33:47.684Z,14.50
2022-11-13T03:34:47.773Z,15.30
2022-11-13T03:35:47.638Z,15.00
2022-11-13T03:36:47.620Z,14.00
2022-11-13T03:37:47.597Z,13.90
2022-11-13T03:38:47.568Z,14.00
2022-11-13T03:39:47.558Z,14.20
2022-11-13T03:40:47.533Z,15.00
2022-11-13T03:41:47.513Z,14.50
2022-11-13T03:42:47.486Z,13.60
2022-11-13T03:43:47.466Z,14.20
2022-11-13T03:44:47.444Z,13.60
2022-11-13T03:45:47.421Z,12.90
2022-11-13T03:46:47.399Z,13.20
2022-11-13T03:47:47.379Z,14.10
2022-11-13T03:48:47.355Z,13.30
2022-11-13T03:49:47.335Z,12.00
2022-11-13T03:50:47.425Z,14.20
2022-11-13T03:51:47.294Z,15.50
2022-11-13T03:52:47.273Z,13.80
2022-11-13T03:53:47.249Z,14.60
2022-11-13T03:54:47.228Z,13.00
2022-11-13T03:55:47.202Z,12.70
2022-11-13T03:56:47.184Z,12.80
2022-11-13T03:57:47.159Z,12.70
2022-11-13T03:58:49.705Z,13.40
2022-11-13T03:59:47.119Z,14.70
2022-11-13T04:00:47.092Z,12.90
2022-11-13T04:01:47.133Z,13.50
2022-11-13T04:02:47.049Z,13.00
2022-11-13T04:03:47.029Z,12.80
2022-11-13T04:04:47.006Z,14.00
2022-11-13T04:05:46.986Z,15.50
2022-11-13T04:06:47.141Z,14.50
2022-11-13T04:07:46.945Z,13.20
2022-11-13T04:08:46.919Z,13.70
2022-11-13T04:09:46.902Z,13.10
2022-11-13T04:10:46.878Z,13.00
2022-11-13T04:11:46.854Z,13.50
2022-11-13T04:12:46.839Z,13.00
2022-11-13T04:13:46.812Z,14.00
2022-11-13T04:14:46.790Z,13.70
2022-11-13T04:15:46.768Z,14.00
2022-11-13T04:16:46.748Z,13.60
2022-11-13T04:17:46.721Z,14.00
2022-11-13T04:18:46.707Z,13.30
2022-11-13T04:19:46.682Z,12.80
2022-11-13T04:20:46.662Z,14.30
2022-11-13T04:21:46.640Z,12.70
2022-11-13T04:22:46.730Z,14.50
2022-11-13T04:23:46.594Z,12.50
2022-11-13T04:24:46.574Z,14.20
2022-11-13T04:25:46.556Z,14.80
2022-11-13T04:26:46.532Z,11.70
2022-11-13T04:27:46.509Z,13.10
2022-11-13T04:28:46.485Z,13.40
2022-11-13T04:29:46.466Z,12.50
2022-11-13T04:30:46.458Z,14.80
2022-11-13T04:31:46.421Z,14.30
2022-11-13T04:32:46.394Z,13.40
2022-11-13T04:33:46.376Z,17.60
2022-11-13T04:34:46.355Z,14.90
2022-11-13T04:35:46.331Z,14.00
2022-11-13T04:36:46.308Z,14.50
2022-11-13T04:37:46.289Z,12.90
2022-11-13T04:38:46.375Z,13.70
2022-11-13T04:39:46.240Z,12.90
2022-11-13T04:40:46.218Z,13.50
2022-11-13T04:41:48.955Z,13.20
2022-11-13T04:42:46.179Z,13.00
2022-11-13T04:43:46.153Z,15.50
2022-11-13T04:44:46.143Z,12.00
2022-11-13T04:45:46.114Z,13.50
2022-11-13T04:46:46.090Z,12.90
2022-11-13T04:47:46.066Z,14.70
2022-11-13T04:48:46.045Z,13.20
2022-11-13T04:49:46.024Z,12.70
2022-11-13T04:50:46.000Z,13.70
2022-11-13T04:51:45.978Z,12.80
2022-11-13T04:52:45.954Z,12.00
2022-11-13T04:53:45.937Z,12.20
2022-11-13T04:54:46.027Z,14.90
2022-11-13T04:55:45.890Z,12.40
2022-11-13T04:56:45.866Z,14.70
2022-11-13T04:57:45.848Z,12.60
2022-11-13T04:58:45.825Z,13.50
2022-11-13T04:59:45.801Z,13.20
2022-11-13T05:00:45.782Z,14.70
2022-11-13T05:01:45.787Z,12.50
2022-11-13T05:02:45.741Z,14.00
2022-11-13T05:03:45.720Z,13.20
2022-11-13T05:04:45.692Z,12.40
2022-11-13T05:05:45.672Z,13.80
2022-11-13T05:06:45.747Z,13.20
2022-11-13T05:07:45.627Z,14.10
2022-11-13T05:08:45.605Z,13.20
2022-11-13T05:09:45.581Z,13.00
2022-11-13T05:10:45.672Z,14.50
2022-11-13T05:11:45.539Z,12.90
2022-11-13T05:12:45.518Z,12.50
2022-11-13T05:13:45.502Z,13.00
2022-11-13T05:14:45.474Z,14.00
2022-11-13T05:15:45.454Z,13.20
2022-11-13T05:16:45.428Z,11.80
2022-11-13T05:17:45.408Z,13.80
2022-11-13T05:18:45.385Z,12.50
2022-11-13T05:19:45.365Z,12.40
2022-11-13T05:20:45.339Z,14.20
2022-11-13T05:21:45.325Z,13.70
2022-11-13T05:22:45.302Z,12.80
2022-11-13T05:23:45.275Z,14.10
2022-11-13T05:24:45.256Z,13.80
2022-11-13T05:25:45.232Z,13.90
2022-11-13T05:26:45.320Z,15.20
2022-11-13T05:27:45.185Z,14.70
2022-11-13T05:28:45.162Z,15.90
2022-11-13T05:29:45.140Z,12.80
2022-11-13T05:30:45.115Z,13.40
2022-11-13T05:31:45.095Z,14.00
2022-11-13T05:32:45.071Z,14.10
2022-11-13T05:33:45.050Z,13.40
2022-11-13T05:34:45.026Z,14.60
2022-11-13T05:35:45.007Z,13.50
2022-11-13T05:36:44.982Z,13.20
2022-11-13T05:37:44.966Z,12.60
2022-11-13T05:38:44.940Z,12.40
2022-11-13T05:39:44.916Z,13.70
2022-11-13T05:40:44.891Z,14.00
2022-11-13T05:41:44.871Z,14.40
2022-11-13T05:42:44.967Z,13.60
2022-11-13T05:43:44.826Z,12.70
2022-11-13T05:44:44.805Z,14.40
2022-11-13T05:45:44.785Z,13.60
2022-11-13T05:46:44.758Z,12.50
2022-11-13T05:47:44.742Z,12.60
2022-11-13T05:48:44.715Z,12.20
2022-11-13T05:49:44.698Z,12.90
2022-11-13T05:50:44.670Z,12.30
2022-11-13T05:51:44.651Z,13.30
2022-11-13T05:52:44.625Z,13.60
2022-11-13T05:53:44.609Z,12.10
2022-11-13T05:54:44.582Z,12.70
2022-11-13T05:55:44.565Z,13.10
2022-11-13T05:56:44.539Z,14.20
2022-11-13T05:57:44.519Z,14.10
2022-11-13T05:58:44.610Z,12.20
2022-11-13T05:59:44.475Z,12.20
2022-11-13T06:00:44.449Z,13.20
2022-11-13T06:01:44.485Z,12.30
2022-11-13T06:02:44.410Z,12.50
2022-11-13T06:03:44.383Z,12.60
2022-11-13T06:04:44.362Z,12.80
2022-11-13T06:05:44.344Z,12.90
2022-11-13T06:06:44.368Z,12.60
2022-11-13T06:07:44.301Z,12.70
2022-11-13T06:08:44.274Z,13.90
2022-11-13T06:09:44.249Z,13.50
2022-11-13T06:10:44.227Z,15.40
2022-11-13T06:11:44.216Z,12.20
2022-11-13T06:12:44.184Z,13.10
2022-11-13T06:13:44.164Z,12.00
2022-11-13T06:14:44.256Z,15.20
2022-11-13T06:15:44.117Z,13.00
2022-11-13T06:16:44.096Z,12.20
2022-11-13T06:17:44.076Z,13.00
2022-11-13T06:18:44.048Z,12.90
2022-11-13T06:19:44.029Z,13.80
2022-11-13T06:20:44.007Z,13.60
2022-11-13T06:21:43.981Z,14.70
2022-11-13T06:22:43.956Z,13.40
2022-11-13T06:23:43.937Z,12.30
2022-11-13T06:24:43.914Z,13.00
2022-11-13T06:25:43.890Z,11.00
2022-11-13T06:26:43.865Z,11.30
2022-11-13T06:27:43.849Z,10.70
2022-11-13T06:28:43.831Z,11.60
2022-11-13T06:29:43.802Z,12.00
2022-11-13T06:30:43.896Z,13.40
2022-11-13T06:31:43.759Z,11.80
2022-11-13T06:32:43.736Z,13.10
2022-11-13T06:33:43.716Z,14.10
2022-11-13T06:34:43.689Z,12.30
2022-11-13T06:35:43.669Z,11.70
2022-11-13T06:36:43.650Z,13.20
2022-11-13T06:37:43.624Z,13.00
2022-11-13T06:38:43.663Z,11.70
2022-11-13T06:39:43.582Z,11.60
2022-11-13T06:40:43.554Z,11.00
2022-11-13T06:41:43.540Z,12.50
2022-11-13T06:42:43.510Z,12.10
2022-11-13T06:43:43.495Z,12.60
2022-11-13T06:44:43.470Z,13.70
2022-11-13T06:45:43.448Z,12.50
2022-11-13T06:46:43.536Z,11.70
2022-11-13T06:47:43.405Z,13.20
2022-11-13T06:48:43.379Z,13.20
2022-11-13T06:49:43.360Z,12.50
2022-11-13T06:50:48.110Z,12.20
2022-11-13T06:51:43.313Z,12.20
2022-11-13T06:52:43.291Z,11.60
2022-11-13T06:53:43.268Z,11.80
2022-11-13T06:54:43.249Z,12.20
2022-11-13T06:55:43.228Z,11.10
2022-11-13T06:56:43.204Z,12.20
2022-11-13T06:57:43.178Z,13.10
2022-11-13T06:58:43.153Z,11.90
2022-11-13T06:59:43.136Z,12.30
2022-11-13T07:00:43.172Z,12.10
2022-11-13T07:01:43.089Z,11.60
2022-11-13T07:02:43.182Z,11.80
2022-11-13T07:03:43.050Z,13.10
2022-11-13T07:04:43.024Z,12.20
2022-11-13T07:05:42.999Z,11.10
2022-11-13T07:06:43.034Z,11.00
2022-11-13T07:07:42.960Z,11.80
2022-11-13T07:08:42.934Z,12.40
2022-11-13T07:09:42.915Z,13.20
2022-11-13T07:10:42.888Z,11.80
2022-11-13T07:11:42.870Z,10.60
2022-11-13T07:12:42.844Z,11.40
2022-11-13T07:13:42.825Z,13.90
2022-11-13T07:14:42.803Z,10.50
2022-11-13T07:15:42.785Z,11.90
2022-11-13T07:17:07.535Z,11.10
2022-11-13T07:17:42.730Z,12.50
2022-11-13T07:18:42.832Z,11.70
2022-11-13T07:19:42.698Z,11.90
2022-11-13T07:20:42.675Z,12.00
2022-11-13T07:21:42.644Z,10.70
2022-11-13T07:22:42.624Z,12.70
2022-11-13T07:23:42.602Z,10.90
2022-11-13T07:24:42.578Z,12.30
2022-11-13T07:25:42.553Z,12.00
2022-11-13T07:26:42.533Z,11.10
2022-11-13T07:27:42.513Z,11.00
2022-11-13T07:28:42.492Z,11.70
2022-11-13T07:29:42.469Z,11.60
2022-11-13T07:30:42.450Z,11.20
2022-11-13T07:31:42.425Z,11.90
2022-11-13T07:32:42.400Z,10.70
2022-11-13T07:33:42.381Z,11.10
2022-11-13T07:34:42.471Z,10.40
2022-11-13T07:35:42.338Z,10.40
2022-11-13T07:36:42.315Z,10.10
2022-11-13T07:37:42.292Z,12.10
2022-11-13T07:38:42.270Z,11.40
2022-11-13T07:39:42.249Z,10.80
2022-11-13T07:40:42.226Z,11.70
2022-11-13T07:41:42.204Z,11.40
2022-11-13T07:42:42.186Z,10.10
2022-11-13T07:43:42.162Z,11.00
2022-11-13T07:44:54.596Z,11.60
2022-11-13T07:45:42.121Z,10.80
2022-11-13T07:46:42.102Z,12.40
2022-11-13T07:47:42.076Z,11.60
2022-11-13T07:48:42.056Z,11.90
2022-11-13T07:49:42.036Z,10.60
2022-11-13T07:50:42.119Z,10.70
2022-11-13T07:51:41.990Z,11.30
2022-11-13T07:52:41.965Z,11.50
2022-11-13T07:53:41.946Z,10.50
2022-11-13T07:54:41.926Z,9.60
2022-11-13T07:55:41.905Z,12.00
2022-11-13T07:56:41.884Z,11.50
2022-11-13T07:57:41.853Z,9.80
2022-11-13T07:58:41.840Z,11.80
2022-11-13T07:59:41.820Z,10.20
2022-11-13T08:00:41.864Z,9.80
2022-11-13T08:01:41.778Z,10.10
2022-11-13T08:02:41.753Z,8.80
2022-11-13T08:03:41.736Z,9.50
2022-11-13T08:04:41.712Z,9.40
2022-11-13T08:05:41.694Z,11.30
2022-11-13T08:06:41.844Z,8.80
2022-11-13T08:07:41.645Z,10.10
2022-11-13T08:08:41.626Z,9.70
2022-11-13T08:09:41.606Z,11.10
2022-11-13T08:10:41.596Z,10.60
2022-11-13T08:11:41.565Z,10.70
2022-11-13T08:12:41.552Z,9.20
2022-11-13T08:13:41.521Z,8.80
2022-11-13T08:14:41.498Z,9.20
2022-11-13T08:15:41.483Z,9.70
2022-11-13T08:16:41.462Z,9.10
2022-11-13T08:17:41.441Z,8.80
2022-11-13T08:18:41.419Z,11.20
2022-11-13T08:19:41.397Z,8.70
2022-11-13T08:20:41.381Z,9.70
2022-11-13T08:21:41.374Z,9.10
2022-11-13T08:22:41.453Z,9.20
2022-11-13T08:23:41.318Z,9.50
2022-11-13T08:24:41.296Z,9.70
2022-11-13T08:25:41.278Z,10.80
2022-11-13T08:26:41.257Z,8.40
2022-11-13T08:27:41.241Z,9.90
2022-11-13T08:28:41.221Z,10.20
2022-11-13T08:29:41.200Z,8.60
2022-11-13T08:30:41.175Z,12.30
2022-11-13T08:31:41.159Z,8.80
2022-11-13T08:32:41.138Z,10.80
2022-11-13T08:33:41.120Z,8.90
2022-11-13T08:34:41.105Z,11.00
2022-11-13T08:35:41.100Z,18.50
2022-11-13T08:36:41.067Z,24.40
2022-11-13T08:37:41.040Z,13.10
2022-11-13T08:38:41.139Z,16.10
2022-11-13T08:39:41.005Z,12.70
2022-11-13T08:40:40.989Z,12.60
2022-11-13T08:41:40.975Z,14.30
2022-11-13T08:42:40.960Z,12.10
2022-11-13T08:43:40.940Z,9.70
2022-11-13T08:44:40.924Z,10.00
2022-11-13T08:45:40.916Z,9.40
2022-11-13T08:46:40.895Z,9.10
2022-11-13T08:47:40.883Z,9.20
2022-11-13T08:48:40.868Z,8.30
2022-11-13T08:49:40.855Z,8.10
2022-11-13T08:50:40.844Z,8.40
2022-11-13T08:51:40.829Z,9.10
2022-11-13T08:52:40.828Z,8.70
2022-11-13T08:53:40.807Z,9.20
2022-11-13T08:54:40.899Z,10.10
2022-11-13T08:55:40.783Z,8.50
2022-11-13T08:56:40.767Z,9.40
2022-11-13T08:57:40.758Z,8.10
2022-11-13T08:58:40.750Z,9.90
2022-11-13T08:59:40.740Z,8.30
2022-11-13T09:00:40.727Z,8.60
2022-11-13T09:01:40.720Z,7.10
2022-11-13T09:02:40.707Z,8.20
2022-11-13T09:03:40.782Z,8.30
2022-11-13T09:04:40.686Z,7.60
2022-11-13T09:05:40.677Z,7.20
2022-11-13T09:06:40.767Z,7.40
2022-11-13T09:07:40.657Z,6.80
2022-11-13T09:08:40.650Z,8.70
2022-11-13T09:09:40.648Z,8.50
2022-11-13T09:10:40.746Z,15.80
2022-11-13T09:11:40.640Z,16.00
2022-11-13T09:12:40.616Z,16.10
2022-11-13T09:13:44.531Z,11.30
2022-11-13T09:14:40.604Z,10.50
2022-11-13T09:15:40.604Z,12.30
2022-11-13T09:16:40.591Z,11.50
2022-11-13T09:17:40.581Z,8.00
2022-11-13T09:18:40.571Z,7.90
2022-11-13T09:19:40.562Z,7.00
2022-11-13T09:20:40.558Z,6.70
2022-11-13T09:21:40.551Z,7.00
2022-11-13T09:22:40.537Z,7.60
2022-11-13T09:23:40.533Z,6.60
2022-11-13T09:24:40.530Z,6.30
2022-11-13T09:25:40.520Z,7.00
2022-11-13T09:26:40.620Z,6.60
2022-11-13T09:27:40.508Z,6.60
2022-11-13T09:28:40.499Z,5.70
2022-11-13T09:29:40.495Z,6.50
2022-11-13T09:30:40.493Z,6.00
2022-11-13T09:31:40.491Z,6.80
2022-11-13T09:32:40.477Z,6.70
2022-11-13T09:33:40.464Z,6.50
2022-11-13T09:34:40.458Z,6.60
2022-11-13T09:35:40.451Z,6.00
2022-11-13T09:36:40.448Z,9.60
2022-11-13T09:37:40.441Z,7.90
2022-11-13T09:38:40.442Z,6.10
2022-11-13T09:39:40.426Z,5.70
2022-11-13T09:40:40.415Z,7.30
2022-11-13T09:41:40.415Z,7.40
2022-11-13T09:42:40.523Z,6.40
2022-11-13T09:43:40.400Z,5.60
2022-11-13T09:44:40.391Z,6.60
2022-11-13T09:45:40.387Z,6.20
2022-11-13T09:46:40.378Z,6.50
2022-11-13T09:47:40.375Z,6.70
2022-11-13T09:48:40.369Z,26.90
2022-11-13T09:49:40.361Z,28.40
2022-11-13T09:50:40.359Z,15.60
2022-11-13T09:51:40.351Z,9.70
2022-11-13T09:52:40.342Z,7.80
2022-11-13T09:53:40.334Z,7.50
2022-11-13T09:54:40.327Z,6.30
2022-11-13T09:55:40.324Z,5.70
2022-11-13T09:56:40.318Z,5.90
2022-11-13T09:57:40.307Z,5.40
2022-11-13T09:58:40.418Z,5.50
2022-11-13T09:59:40.294Z,5.40
2022-11-13T10:00:40.344Z,7.00
2022-11-13T10:01:40.284Z,5.20
2022-11-13T10:02:40.282Z,5.70
2022-11-13T10:04:04.239Z,6.30
2022-11-13T10:04:40.264Z,6.90
2022-11-13T10:05:40.258Z,6.50
2022-11-13T10:06:40.338Z,6.10
2022-11-13T10:07:40.242Z,5.80
2022-11-13T10:08:40.236Z,5.10
2022-11-13T10:09:40.232Z,6.30
2022-11-13T10:10:40.223Z,5.70
2022-11-13T10:11:40.216Z,6.00
2022-11-13T10:12:40.209Z,5.20
2022-11-13T10:13:40.203Z,6.80
2022-11-13T10:14:40.304Z,5.10
2022-11-13T10:15:40.191Z,4.60
2022-11-13T10:16:40.191Z,5.80
2022-11-13T10:17:40.175Z,5.20
2022-11-13T10:18:40.181Z,5.00
2022-11-13T10:19:40.162Z,6.30
2022-11-13T10:20:40.151Z,5.00
2022-11-13T10:21:40.145Z,6.70
2022-11-13T10:22:40.138Z,5.00
2022-11-13T10:23:40.128Z,4.90
2022-11-13T10:24:40.123Z,5.70
2022-11-13T10:25:40.120Z,4.60
2022-11-13T10:26:40.109Z,5.50
2022-11-13T10:27:40.212Z,5.60
2022-11-13T10:28:55.515Z,4.80
2022-11-13T10:29:44.662Z,5.50
2022-11-13T10:30:40.193Z,4.80
2022-11-13T10:31:40.075Z,4.50
2022-11-13T10:32:40.070Z,5.30
2022-11-13T10:33:40.064Z,4.80
2022-11-13T10:34:40.053Z,5.20
2022-11-13T10:35:40.048Z,5.70
2022-11-13T10:36:40.039Z,5.10
2022-11-13T10:37:40.036Z,7.20
2022-11-13T10:38:40.029Z,4.50
2022-11-13T10:39:40.014Z,5.70
2022-11-13T10:40:40.007Z,38.90
2022-11-13T10:41:40.003Z,20.60
2022-11-13T10:42:39.994Z,7.00
2022-11-13T10:43:39.983Z,5.30
2022-11-13T10:44:39.982Z,6.20
2022-11-13T10:45:39.978Z,5.00
2022-11-13T10:46:40.077Z,6.90
2022-11-13T10:48:03.306Z,5.40
2022-11-13T10:48:39.958Z,4.10
2022-11-13T10:49:39.943Z,4.50
2022-11-13T10:50:39.932Z,5.80
2022-11-13T10:51:39.928Z,4.50
2022-11-13T10:52:39.918Z,5.00
2022-11-13T10:53:39.905Z,4.70
2022-11-13T10:54:39.903Z,4.00
2022-11-13T10:55:39.890Z,4.60
2022-11-13T10:56:39.888Z,4.50
2022-11-13T10:57:39.881Z,5.00
2022-11-13T10:58:39.885Z,4.20
2022-11-13T10:59:39.871Z,5.30
2022-11-13T11:00:39.858Z,4.60
2022-11-13T11:01:39.973Z,4.80
2022-11-13T11:02:39.956Z,5.10
2022-11-13T11:03:39.829Z,4.40
2022-11-13T11:04:39.819Z,4.70
2022-11-13T11:05:39.812Z,4.80
2022-11-13T11:07:17.814Z,4.70
2022-11-13T11:07:39.820Z,4.90
2022-11-13T11:08:39.786Z,7.50
2022-11-13T11:09:39.777Z,4.60
2022-11-13T11:10:39.769Z,5.10
2022-11-13T11:11:39.780Z,4.70
2022-11-13T11:12:39.754Z,5.40
2022-11-13T11:13:39.753Z,10.30
2022-11-13T11:14:39.739Z,5.50
2022-11-13T11:15:39.736Z,8.30
2022-11-13T11:16:39.719Z,7.80
2022-11-13T11:17:39.732Z,6.30
2022-11-13T11:18:39.819Z,5.30
2022-11-13T11:19:39.700Z,6.30
2022-11-13T11:20:39.689Z,6.70
2022-11-13T11:21:39.680Z,4.70
2022-11-13T11:22:39.672Z,5.10
2022-11-13T11:23:39.662Z,4.10
2022-11-13T11:24:39.650Z,5.10
2022-11-13T11:25:39.643Z,4.50
2022-11-13T11:26:39.632Z,4.40
2022-11-13T11:27:39.629Z,4.50
2022-11-13T11:28:39.617Z,4.10
2022-11-13T11:29:39.609Z,4.80
2022-11-13T11:30:39.600Z,3.90
2022-11-13T11:31:39.596Z,5.20
2022-11-13T11:32:39.586Z,4.70
2022-11-13T11:33:39.578Z,4.40
2022-11-13T11:34:39.681Z,7.40
2022-11-13T11:35:39.561Z,5.30
2022-11-13T11:36:39.551Z,3.70
2022-11-13T11:37:39.547Z,6.10
2022-11-13T11:38:39.536Z,5.30
2022-11-13T11:39:39.525Z,5.00
2022-11-13T11:40:39.513Z,4.60
2022-11-13T11:41:39.508Z,4.90
2022-11-13T11:42:39.500Z,5.00
2022-11-13T11:43:39.490Z,4.90
2022-11-13T11:44:39.488Z,4.60
2022-11-13T11:45:39.476Z,5.70
2022-11-13T11:46:42.749Z,4.50
2022-11-13T11:47:39.472Z,4.50
2022-11-13T11:48:39.448Z,4.30
2022-11-13T11:49:39.443Z,4.50
2022-11-13T11:50:39.549Z,4.60
2022-11-13T11:51:39.427Z,4.30
2022-11-13T11:52:39.429Z,5.80
2022-11-13T11:53:39.413Z,5.00
2022-11-13T11:54:39.404Z,4.90
2022-11-13T11:55:39.393Z,4.40
2022-11-13T11:56:39.381Z,4.30
2022-11-13T11:57:39.374Z,4.20
2022-11-13T11:58:39.371Z,4.50
2022-11-13T11:59:39.377Z,4.70
2022-11-13T12:00:39.349Z,4.60
2022-11-13T12:01:39.341Z,4.50
2022-11-13T12:02:39.332Z,4.60
2022-11-13T12:03:39.325Z,4.50
2022-11-13T12:04:39.412Z,5.40
2022-11-13T12:05:39.394Z,4.10
2022-11-13T12:06:39.455Z,4.20
2022-11-13T12:07:39.294Z,5.00
2022-11-13T12:08:39.283Z,5.30
2022-11-13T12:09:39.292Z,5.70
2022-11-13T12:10:39.269Z,5.60
2022-11-13T12:11:39.262Z,4.40
2022-11-13T12:12:39.255Z,4.00
2022-11-13T12:13:39.243Z,4.00
2022-11-13T12:14:39.237Z,3.80
2022-11-13T12:15:39.228Z,4.20
2022-11-13T12:16:39.219Z,4.00
2022-11-13T12:17:39.215Z,4.90
2022-11-13T12:18:39.200Z,4.20
2022-11-13T12:19:39.211Z,4.90
2022-11-13T12:20:39.193Z,4.20
2022-11-13T12:21:39.177Z,16.00
2022-11-13T12:22:39.278Z,10.50
2022-11-13T12:23:39.158Z,4.90
2022-11-13T12:24:39.151Z,4.60
2022-11-13T12:25:39.140Z,3.80
2022-11-13T12:26:39.137Z,3.80
2022-11-13T12:27:39.128Z,6.30
2022-11-13T12:28:41.198Z,5.00
2022-11-13T12:29:39.124Z,4.40
2022-11-13T12:30:39.103Z,4.90
2022-11-13T12:31:39.101Z,4.00
2022-11-13T12:32:39.086Z,4.30
2022-11-13T12:33:39.105Z,4.70
2022-11-13T12:34:39.067Z,4.70
2022-11-13T12:35:39.063Z,3.60
2022-11-13T12:36:39.052Z,4.50
2022-11-13T12:37:39.044Z,3.50
2022-11-13T12:38:39.147Z,4.10
2022-11-13T12:39:39.024Z,5.30
2022-11-13T12:40:44.271Z,4.40
2022-11-13T12:41:39.007Z,4.10
2022-11-13T12:42:38.999Z,7.10
2022-11-13T12:43:38.990Z,4.10
2022-11-13T12:44:38.980Z,4.00
2022-11-13T12:45:38.992Z,3.90
2022-11-13T12:46:38.963Z,3.90
2022-11-13T12:47:38.954Z,5.20
2022-11-13T12:48:38.944Z,5.40
2022-11-13T12:49:38.938Z,3.60
2022-11-13T12:50:38.929Z,4.70
2022-11-13T12:51:38.919Z,4.30
2022-11-13T12:52:38.917Z,4.00
2022-11-13T12:53:38.899Z,3.90
2022-11-13T12:54:39.011Z,4.90
2022-11-13T12:55:38.882Z,3.50
2022-11-13T12:56:38.875Z,4.20
2022-11-13T12:57:38.864Z,5.40
2022-11-13T12:58:38.859Z,3.70
2022-11-13T12:59:38.849Z,3.60
2022-11-13T13:00:38.843Z,3.90
2022-11-13T13:01:38.957Z,3.30
2022-11-13T13:02:38.822Z,3.30